createdAt,value
2023-11-04T00:01:59.732Z,82.82
2023-11-04T00:05:02.431Z,82.92
2023-11-04T00:08:06.009Z,83.10
2023-11-04T00:11:08.752Z,83.35
2023-11-04T00:14:11.094Z,83.56
2023-11-04T00:17:14.363Z,83.69
2023-11-04T00:20:16.728Z,83.87
2023-11-04T00:23:19.413Z,83.97
2023-11-04T00:26:21.891Z,83.70
2023-11-04T00:29:26.640Z,84.28
2023-11-04T00:32:29.558Z,83.96
2023-11-04T00:35:32.273Z,83.66
2023-11-04T00:38:34.642Z,83.75
2023-11-04T00:41:37.324Z,83.77
2023-11-04T00:44:40.017Z,83.85
2023-11-04T00:47:42.705Z,83.61
2023-11-04T00:50:45.179Z,83.61
2023-11-04T00:53:47.886Z,83.49
2023-11-04T00:56:50.265Z,83.68
2023-11-04T00:59:53.897Z,83.72
2023-11-04T01:02:57.036Z,83.97
2023-11-04T01:05:59.945Z,83.64
2023-11-04T01:09:04.189Z,83.59
2023-11-04T01:12:08.058Z,83.28
2023-11-04T01:15:10.858Z,83.33
2023-11-04T01:18:13.851Z,83.16
2023-11-04T01:21:17.883Z,82.88
2023-11-04T01:24:20.625Z,83.32
2023-11-04T01:27:23.119Z,83.51
2023-11-04T01:30:25.823Z,83.89
2023-11-04T01:33:28.807Z,84.14
2023-11-04T01:36:31.650Z,84.46
2023-11-04T01:39:34.898Z,84.67
2023-11-04T01:42:42.936Z,84.67
2023-11-04T01:45:45.468Z,84.93
2023-11-04T01:48:48.787Z,84.89
2023-11-04T01:51:52.918Z,84.98
2023-11-04T01:54:55.859Z,84.77
2023-11-04T01:58:01.806Z,84.86
2023-11-04T02:01:05.393Z,84.37
2023-11-04T02:04:08.200Z,83.97
2023-11-04T02:07:10.651Z,83.78
2023-11-04T02:10:14.642Z,83.77
2023-11-04T02:13:17.026Z,83.69
2023-11-04T02:16:19.984Z,83.80
2023-11-04T02:19:22.537Z,83.98
2023-11-04T02:22:26.029Z,83.73
2023-11-04T02:25:35.858Z,83.51
2023-11-04T02:28:38.507Z,83.75
2023-11-04T02:31:40.910Z,83.68
2023-11-04T02:34:43.710Z,83.64
2023-11-04T02:37:48.655Z,83.41
2023-11-04T02:40:51.412Z,83.36
2023-11-04T02:43:54.674Z,83.34
2023-11-04T02:47:01.094Z,83.50
2023-11-04T02:50:03.572Z,83.60
2023-11-04T02:53:06.324Z,83.43
2023-11-04T02:56:09.401Z,83.38
2023-11-04T02:59:12.133Z,83.29
2023-11-04T03:02:15.492Z,83.08
2023-11-04T03:05:27.528Z,82.97
2023-11-04T03:08:35.311Z,82.79
2023-11-04T03:11:38.027Z,82.66
2023-11-04T03:14:44.602Z,82.56
2023-11-04T03:17:47.348Z,82.46
2023-11-04T03:20:49.828Z,82.38
2023-11-04T03:23:52.648Z,82.16
2023-11-04T03:26:56.267Z,82.33
2023-11-04T03:29:58.882Z,82.06
2023-11-04T03:33:03.107Z,82.12
2023-11-04T03:36:06.066Z,82.22
2023-11-04T03:39:10.121Z,82.65
2023-11-04T03:42:12.795Z,82.70
2023-11-04T03:45:15.861Z,82.73
2023-11-04T03:48:19.063Z,82.23
2023-11-04T03:51:24.149Z,82.33
2023-11-04T03:54:26.810Z,82.69
2023-11-04T03:57:29.217Z,82.41
2023-11-04T04:00:32.853Z,82.33
2023-11-04T04:03:35.565Z,82.36
2023-11-04T04:06:38.098Z,82.44
2023-11-04T04:09:41.062Z,82.32
2023-11-04T04:12:43.425Z,82.17
2023-11-04T04:15:46.368Z,82.12
2023-11-04T04:18:49.014Z,82.26
2023-11-04T04:21:51.736Z,82.06
2023-11-04T04:24:54.396Z,82.34
2023-11-04T04:27:57.607Z,81.98
2023-11-04T04:31:00.149Z,82.18
2023-11-04T04:34:02.910Z,82.25
2023-11-04T04:37:05.346Z,81.83
2023-11-04T04:40:08.826Z,81.97
2023-11-04T04:43:11.200Z,81.94
2023-11-04T04:46:13.889Z,82.30
2023-11-04T04:49:16.495Z,82.42
2023-11-04T04:52:19.304Z,82.25
2023-11-04T04:55:28.310Z,81.98
2023-11-04T04:58:41.609Z,82.52
2023-11-04T05:02:00.752Z,82.48
2023-11-04T05:05:12.243Z,82.88
2023-11-04T05:08:21.209Z,82.20
2023-11-04T05:11:34.395Z,82.13
2023-11-04T05:14:40.709Z,82.02
2023-11-04T05:17:55.004Z,82.34
2023-11-04T05:21:34.798Z,82.32
2023-11-04T05:24:41.039Z,82.09
2023-11-04T05:27:43.821Z,82.05
2023-11-04T05:30:46.611Z,81.83
2023-11-04T05:33:49.148Z,82.03
2023-11-04T05:36:54.012Z,81.80
2023-11-04T05:39:56.547Z,81.92
2023-11-04T05:42:59.707Z,81.68
2023-11-04T05:46:05.176Z,81.80
2023-11-04T05:49:07.947Z,81.92
2023-11-04T05:52:10.343Z,81.91
2023-11-04T05:55:13.577Z,81.79
2023-11-04T05:58:15.985Z,81.92
2023-11-04T06:01:24.439Z,81.57
2023-11-04T06:04:27.300Z,81.87
2023-11-04T06:07:30.363Z,81.70
2023-11-04T06:10:33.117Z,81.90
2023-11-04T06:13:36.002Z,81.83
2023-11-04T06:16:38.808Z,81.84
2023-11-04T06:19:41.241Z,81.46
2023-11-04T06:22:44.027Z,81.80
2023-11-04T06:25:46.416Z,81.99
2023-11-04T06:28:49.442Z,82.10
2023-11-04T06:31:51.889Z,81.83
2023-11-04T06:34:54.554Z,81.84
2023-11-04T06:37:56.992Z,81.37
2023-11-04T06:41:00.084Z,81.51
2023-11-04T06:44:02.437Z,81.80
2023-11-04T06:47:06.722Z,82.14
2023-11-04T06:50:09.896Z,81.52
2023-11-04T06:53:14.001Z,81.26
2023-11-04T06:56:16.492Z,81.68
2023-11-04T06:59:20.260Z,81.38
2023-11-04T07:02:22.601Z,81.26
2023-11-04T07:05:25.875Z,80.99
2023-11-04T07:08:28.220Z,81.37
2023-11-04T07:11:33.428Z,81.89
2023-11-04T07:14:35.899Z,82.03
2023-11-04T07:17:39.152Z,82.01
2023-11-04T07:20:42.581Z,81.89
2023-11-04T07:23:45.764Z,82.23
2023-11-04T07:26:48.166Z,81.72
2023-11-04T07:29:51.132Z,82.04
2023-11-04T07:32:54.477Z,82.48
2023-11-04T07:35:57.763Z,82.74
2023-11-04T07:39:00.304Z,82.57
2023-11-04T07:42:02.952Z,82.79
2023-11-04T07:45:05.949Z,82.79
2023-11-04T07:48:12.360Z,83.14
2023-11-04T07:51:14.980Z,82.75
2023-11-04T07:54:18.167Z,82.92
2023-11-04T07:57:20.754Z,82.62
2023-11-04T08:00:23.488Z,82.66
2023-11-04T08:03:27.428Z,81.97
2023-11-04T08:06:29.999Z,82.03
2023-11-04T08:09:32.776Z,82.15
2023-11-04T08:12:35.477Z,82.05
2023-11-04T08:15:39.627Z,81.09
2023-11-04T08:18:42.167Z,81.01
2023-11-04T08:21:45.645Z,81.10
2023-11-04T08:24:49.065Z,80.47
2023-11-04T08:27:51.778Z,79.54
2023-11-04T08:30:54.443Z,79.40
2023-11-04T08:33:59.471Z,79.01
2023-11-04T08:37:02.877Z,78.72
2023-11-04T08:40:06.324Z,78.08
2023-11-04T08:43:08.826Z,77.47
2023-11-04T08:46:13.928Z,77.15
2023-11-04T08:49:16.352Z,76.84
2023-11-04T08:52:19.140Z,76.16
2023-11-04T08:55:21.683Z,74.83
2023-11-04T08:58:24.321Z,70.79
2023-11-04T09:01:26.778Z,65.10
2023-11-04T09:04:29.699Z,62.51
2023-11-04T09:07:32.182Z,58.03
2023-11-04T09:10:34.894Z,53.98
2023-11-04T09:13:38.395Z,50.82
2023-11-04T09:16:41.107Z,44.44
2023-11-04T09:19:43.592Z,40.10
2023-11-04T09:22:46.950Z,38.08
2023-11-04T09:25:50.341Z,36.82
2023-11-04T09:28:54.440Z,36.65
2023-11-04T09:31:57.709Z,33.60
2023-11-04T09:35:01.356Z,31.81
2023-11-04T09:38:05.845Z,29.39
2023-11-04T09:41:08.548Z,30.50
2023-11-04T09:44:11.968Z,31.92
2023-11-04T09:47:15.652Z,31.28
2023-11-04T09:50:18.202Z,32.17
2023-11-04T09:53:27.657Z,33.64
2023-11-04T09:56:30.034Z,31.82
2023-11-04T09:59:34.767Z,36.73
2023-11-04T10:02:37.480Z,37.37
2023-11-04T10:05:40.959Z,37.78
2023-11-04T10:08:48.137Z,37.53
2023-11-04T10:11:51.676Z,35.96
2023-11-04T10:14:54.068Z,36.56
2023-11-04T10:17:57.565Z,37.84
2023-11-04T10:21:01.281Z,38.18
2023-11-04T10:24:06.167Z,38.49
2023-11-04T10:27:08.574Z,38.73
2023-11-04T10:30:12.007Z,39.10
2023-11-04T10:33:18.474Z,38.40
2023-11-04T10:36:22.987Z,39.84
2023-11-04T10:39:28.856Z,39.68
2023-11-04T10:42:32.687Z,39.93
2023-11-04T10:45:38.334Z,40.24
2023-11-04T10:48:51.592Z,39.74
2023-11-04T10:52:10.051Z,40.12
2023-11-04T10:55:14.252Z,39.90
2023-11-04T10:58:28.957Z,40.44
2023-11-04T11:01:33.150Z,39.93
2023-11-04T11:04:37.188Z,40.26
2023-11-04T11:07:44.787Z,40.58
2023-11-04T11:10:57.706Z,41.23
2023-11-04T11:14:02.889Z,41.15
2023-11-04T11:17:09.104Z,40.41
2023-11-04T11:20:36.855Z,41.45
2023-11-04T11:23:48.312Z,41.22
2023-11-04T11:27:01.306Z,41.43
2023-11-04T11:30:05.709Z,40.95
2023-11-04T11:33:09.226Z,40.87
2023-11-04T11:36:17.801Z,40.97
2023-11-04T11:39:21.571Z,41.51
2023-11-04T11:42:28.415Z,41.72
2023-11-04T11:45:31.268Z,41.41
2023-11-04T11:48:39.708Z,41.50
2023-11-04T11:51:43.947Z,41.22
2023-11-04T11:54:46.278Z,41.61
2023-11-04T11:57:48.939Z,41.79
2023-11-04T12:00:52.004Z,42.26
2023-11-04T12:03:55.363Z,41.75
2023-11-04T12:06:59.142Z,42.30
2023-11-04T12:10:02.250Z,42.66
2023-11-04T12:13:04.911Z,43.49
2023-11-04T12:16:10.186Z,43.94
2023-11-04T12:19:14.705Z,44.30
2023-11-04T12:22:17.521Z,43.76
2023-11-04T12:25:20.033Z,41.41
2023-11-04T12:28:24.313Z,39.40
2023-11-04T12:31:30.254Z,38.47
2023-11-04T12:34:33.077Z,38.56
2023-11-04T12:37:36.132Z,36.89
2023-11-04T12:40:43.927Z,37.02
2023-11-04T12:43:46.916Z,37.84
2023-11-04T12:46:51.406Z,37.70
2023-11-04T12:49:54.222Z,38.27
2023-11-04T12:53:02.296Z,39.91
2023-11-04T12:56:05.311Z,39.26
2023-11-04T12:59:08.390Z,40.00
2023-11-04T13:02:11.079Z,39.73
2023-11-04T13:05:14.074Z,40.75
2023-11-04T13:08:16.640Z,41.83
2023-11-04T13:11:19.339Z,42.99
2023-11-04T13:14:21.746Z,45.80
2023-11-04T13:17:25.472Z,45.95
2023-11-04T13:20:28.010Z,47.30
2023-11-04T13:23:30.754Z,47.70
2023-11-04T13:26:33.141Z,49.32
2023-11-04T13:29:35.873Z,50.91
2023-11-04T13:32:38.647Z,51.06
2023-11-04T13:35:41.760Z,51.07
2023-11-04T13:38:44.610Z,51.24
2023-11-04T13:41:47.332Z,51.58
2023-11-04T13:44:49.793Z,51.41
2023-11-04T13:47:52.686Z,51.03
2023-11-04T13:50:55.105Z,51.00
2023-11-04T13:53:57.788Z,51.27
2023-11-04T13:57:00.130Z,51.43
2023-11-04T14:00:02.861Z,51.48
2023-11-04T14:03:07.166Z,51.64
2023-11-04T14:06:10.077Z,51.71
2023-11-04T14:09:12.600Z,51.53
2023-11-04T14:12:15.249Z,51.29
2023-11-04T14:15:20.341Z,51.30
2023-11-04T14:18:23.190Z,50.93
2023-11-04T14:21:25.728Z,51.11
2023-11-04T14:24:28.348Z,51.44
2023-11-04T14:27:31.563Z,51.84
2023-11-04T14:30:34.330Z,52.64
2023-11-04T14:33:36.790Z,53.42
2023-11-04T14:36:41.600Z,53.80
2023-11-04T14:39:44.462Z,54.38
2023-11-04T14:42:48.041Z,54.88
2023-11-04T14:45:50.512Z,55.02
2023-11-04T14:48:53.964Z,54.90
2023-11-04T14:51:56.404Z,55.26
2023-11-04T14:54:59.672Z,55.21
2023-11-04T14:58:02.212Z,55.48
2023-11-04T15:01:05.095Z,56.68
2023-11-04T15:04:08.011Z,57.51
2023-11-04T15:07:11.939Z,58.35
2023-11-04T15:10:14.337Z,59.20
2023-11-04T15:13:17.051Z,58.81
2023-11-04T15:16:19.509Z,60.07
2023-11-04T15:19:22.275Z,59.31
2023-11-04T15:22:30.943Z,60.01
2023-11-04T15:25:33.628Z,60.70
2023-11-04T15:28:36.143Z,60.79
2023-11-04T15:31:39.443Z,60.59
2023-11-04T15:34:45.831Z,61.11
2023-11-04T15:37:48.507Z,61.44
2023-11-04T15:40:50.877Z,61.59
2023-11-04T15:43:53.501Z,62.10
2023-11-04T15:46:56.219Z,62.49
2023-11-04T15:50:01.583Z,62.23
2023-11-04T15:53:04.108Z,64.12
2023-11-04T15:56:07.426Z,64.16
2023-11-04T15:59:10.169Z,64.03
2023-11-04T16:02:12.898Z,65.69
2023-11-04T16:05:15.994Z,67.59
2023-11-04T16:08:18.534Z,66.95
2023-11-04T16:11:21.632Z,66.70
2023-11-04T16:14:24.012Z,68.11
2023-11-04T16:17:27.011Z,68.35
2023-11-04T16:20:29.514Z,68.08
2023-11-04T16:23:32.824Z,68.55
2023-11-04T16:26:35.610Z,68.85
2023-11-04T16:29:38.473Z,69.36
2023-11-04T16:32:41.232Z,69.71
2023-11-04T16:35:44.128Z,69.75
2023-11-04T16:38:46.922Z,70.17
2023-11-04T16:41:49.602Z,70.23
2023-11-04T16:44:52.032Z,70.15
2023-11-04T16:47:54.882Z,70.72
2023-11-04T16:50:57.701Z,70.45
2023-11-04T16:54:01.113Z,70.92
2023-11-04T16:57:06.009Z,70.95
2023-11-04T17:00:10.941Z,71.30
2023-11-04T17:03:13.506Z,71.43
2023-11-04T17:06:16.290Z,71.95
2023-11-04T17:09:19.984Z,72.51
2023-11-04T17:12:23.846Z,72.58
2023-11-04T17:15:26.254Z,72.33
2023-11-04T17:18:29.033Z,72.61
2023-11-04T17:21:32.799Z,72.58
2023-11-04T17:24:35.626Z,73.16
2023-11-04T17:27:38.776Z,73.62
2023-11-04T17:30:42.141Z,73.69
2023-11-04T17:33:46.152Z,73.58
2023-11-04T17:36:51.449Z,73.87
2023-11-04T17:39:54.108Z,73.74
2023-11-04T17:43:00.029Z,74.04
2023-11-04T17:46:02.393Z,74.08
2023-11-04T17:49:07.818Z,74.16
2023-11-04T17:52:10.205Z,74.56
2023-11-04T17:55:12.849Z,74.78
2023-11-04T17:58:15.247Z,75.99
2023-11-04T18:01:17.810Z,75.25
2023-11-04T18:04:21.873Z,75.30
2023-11-04T18:07:31.246Z,76.11
2023-11-04T18:10:44.436Z,76.51
2023-11-04T18:13:46.834Z,76.27
2023-11-04T18:16:52.489Z,76.95
2023-11-04T18:19:57.213Z,77.20
2023-11-04T18:22:59.918Z,77.66
2023-11-04T18:26:05.176Z,77.35
2023-11-04T18:29:07.635Z,78.25
2023-11-04T18:32:10.972Z,77.98
2023-11-04T18:35:14.301Z,76.98
2023-11-04T18:38:16.544Z,77.63
2023-11-04T18:41:19.156Z,78.11
2023-11-04T18:44:21.701Z,78.10
2023-11-04T18:47:25.136Z,77.85
2023-11-04T18:50:30.830Z,77.93
2023-11-04T18:53:33.657Z,77.64
2023-11-04T18:56:35.863Z,78.22
2023-11-04T18:59:38.388Z,78.05
2023-11-04T19:02:40.695Z,77.90
2023-11-04T19:05:43.356Z,78.30
2023-11-04T19:08:45.505Z,78.74
2023-11-04T19:11:48.175Z,78.73
2023-11-04T19:14:53.116Z,78.65
2023-11-04T19:17:55.582Z,78.89
2023-11-04T19:20:57.809Z,78.92
2023-11-04T19:24:00.474Z,78.97
2023-11-04T19:27:02.582Z,79.40
2023-11-04T19:30:06.156Z,78.77
2023-11-04T19:33:08.445Z,79.92
2023-11-04T19:36:11.173Z,80.16
2023-11-04T19:39:13.392Z,81.04
2023-11-04T19:42:15.826Z,80.24
2023-11-04T19:45:22.912Z,80.92
2023-11-04T19:48:26.546Z,80.88
2023-11-04T19:51:28.742Z,80.87
2023-11-04T19:54:31.223Z,80.90
2023-11-04T19:57:33.401Z,80.79
2023-11-04T20:00:36.311Z,82.01
2023-11-04T20:03:39.020Z,82.24
2023-11-04T20:06:41.218Z,82.62
2023-11-04T20:09:45.199Z,82.64
2023-11-04T20:12:49.498Z,82.15
2023-11-04T20:15:51.987Z,82.83
2023-11-04T20:18:54.300Z,82.79
2023-11-04T20:21:58.046Z,83.35
2023-11-04T20:25:00.541Z,83.44
2023-11-04T20:28:03.162Z,83.96
2023-11-04T20:31:05.648Z,83.54
2023-11-04T20:34:09.452Z,83.58
2023-11-04T20:37:12.054Z,83.48
2023-11-04T20:40:15.822Z,83.57
2023-11-04T20:43:18.088Z,83.36
2023-11-04T20:46:20.616Z,83.19
2023-11-04T20:49:24.024Z,82.77
2023-11-04T20:52:26.449Z,82.91
2023-11-04T20:55:31.831Z,83.02
2023-11-04T20:58:36.359Z,82.78
2023-11-04T21:01:39.315Z,84.18
2023-11-04T21:04:42.530Z,84.26
2023-11-04T21:07:44.837Z,84.53
2023-11-04T21:10:54.301Z,84.61
2023-11-04T21:14:05.867Z,84.37
2023-11-04T21:17:14.492Z,84.50
2023-11-04T21:20:16.762Z,84.52
2023-11-04T21:23:21.005Z,84.52
2023-11-04T21:26:23.553Z,85.47
2023-11-04T21:29:25.962Z,86.00
2023-11-04T21:32:28.165Z,86.13
2023-11-04T21:35:30.650Z,86.23
2023-11-04T21:38:32.982Z,86.27
2023-11-04T21:41:35.444Z,85.98
2023-11-04T21:44:38.287Z,86.42
2023-11-04T21:47:40.775Z,86.65
2023-11-04T21:50:43.120Z,86.25
2023-11-04T21:53:45.588Z,86.89
2023-11-04T21:56:47.775Z,86.72
2023-11-04T21:59:52.712Z,87.20
2023-11-04T22:02:55.359Z,87.05
2023-11-04T22:05:57.815Z,87.02
2023-11-04T22:09:01.586Z,87.16
2023-11-04T22:12:04.162Z,87.03
2023-11-04T22:15:08.837Z,86.60
2023-11-04T22:18:11.542Z,86.67
2023-11-04T22:21:17.345Z,86.80
2023-11-04T22:24:21.259Z,87.24
2023-11-04T22:27:24.467Z,87.56
2023-11-04T22:30:26.935Z,87.61
2023-11-04T22:33:29.128Z,88.54
2023-11-04T22:36:31.612Z,88.31
2023-11-04T22:39:33.710Z,87.95
2023-11-04T22:42:36.221Z,88.36
2023-11-04T22:45:38.389Z,88.21
2023-11-04T22:48:40.966Z,88.54
2023-11-04T22:51:43.467Z,88.42
2023-11-04T22:54:45.891Z,88.72
2023-11-04T22:57:48.059Z,88.42
2023-11-04T23:00:52.969Z,88.94
2023-11-04T23:03:56.045Z,88.23
2023-11-04T23:06:58.590Z,88.41
2023-11-04T23:10:00.767Z,88.60
2023-11-04T23:13:03.235Z,88.46
2023-11-04T23:16:05.705Z,88.42
2023-11-04T23:19:09.120Z,88.50
2023-11-04T23:22:11.414Z,88.50
2023-11-04T23:25:20.701Z,89.03
2023-11-04T23:28:24.008Z,89.01
2023-11-04T23:31:27.378Z,88.92
2023-11-04T23:34:29.670Z,89.11
2023-11-04T23:37:32.125Z,89.19
2023-11-04T23:40:35.684Z,89.08
2023-11-04T23:43:38.130Z,89.49
2023-11-04T23:46:40.395Z,89.36
2023-11-04T23:49:46.115Z,88.96
2023-11-04T23:52:48.331Z,90.33
2023-11-04T23:55:51.192Z,90.50
2023-11-04T23:58:53.439Z,90.93
